Time;durP1;ratioP1;P1;durP2;ratioP2;P2;SDS_P1;SDS_P2;PMS_P1;PMS_P2;Temp;Humidity;BMP_temperature;BMP_pressure;BME280_temperature;BME280_humidity;BME280_pressure;Samples;Min_cycle;Max_cycle;Signal;HPM_P1;HPM_P2
2023/05/10 00:02:05;;;;;;;14.50;8.73;;;;;;;10.80;100.00;100718.72;5021179;28;20056;-76
2023/05/10 00:04:49;;;;;;;11.77;7.75;;;;;;;10.79;100.00;100714.38;5020397;28;20127;-76
2023/05/10 00:07:33;;;;;;;14.73;8.32;;;;;;;10.79;100.00;100717.00;5022858;28;22171;-76
2023/05/10 00:10:17;;;;;;;11.07;7.40;;;;;;;10.78;100.00;100715.31;5020338;28;20138;-76
2023/05/10 00:13:01;;;;;;;10.75;7.30;;;;;;;10.76;100.00;100715.38;5022903;28;20048;-75
2023/05/10 00:15:45;;;;;;;10.85;7.07;;;;;;;10.73;100.00;100711.06;5024132;28;20048;-75
2023/05/10 00:18:29;;;;;;;10.50;7.03;;;;;;;10.74;100.00;100714.59;4970956;28;20383;-76
2023/05/10 00:21:14;;;;;;;8.65;6.50;;;;;;;10.72;100.00;100712.00;4964033;28;20056;-76
2023/05/10 00:23:58;;;;;;;10.27;6.30;;;;;;;10.75;100.00;100713.66;5018269;28;20823;-76
2023/05/10 00:26:42;;;;;;;11.25;7.80;;;;;;;10.75;100.00;100704.84;5021803;28;20059;-77
2023/05/10 00:29:28;;;;;;;11.68;7.47;;;;;;;10.72;100.00;100704.06;5024024;28;20078;-77
2023/05/10 00:32:14;;;;;;;14.15;7.25;;;;;;;10.73;100.00;100696.97;5022333;28;20084;-77
2023/05/10 00:34:58;;;;;;;11.55;7.30;;;;;;;10.73;100.00;100700.47;5015770;28;20048;-76
2023/05/10 00:37:42;;;;;;;16.60;8.68;;;;;;;10.77;100.00;100698.53;5021505;28;20900;-77
2023/05/10 00:40:26;;;;;;;16.27;8.30;;;;;;;10.76;100.00;100694.19;5018920;28;20059;-77
2023/05/10 00:43:11;;;;;;;13.85;8.00;;;;;;;10.77;100.00;100702.97;5016999;28;20966;-77
2023/05/10 00:45:55;;;;;;;14.65;7.55;;;;;;;10.77;100.00;100698.53;5023780;28;20040;-77
2023/05/10 00:48:39;;;;;;;13.13;7.10;;;;;;;10.78;100.00;100702.91;5022711;28;20064;-77
2023/05/10 00:51:24;;;;;;;17.25;8.32;;;;;;;10.78;100.00;100699.41;5017430;28;20064;-77
2023/05/10 00:54:11;;;;;;;16.10;7.45;;;;;;;10.78;100.00;100696.75;5021479;28;20052;-77
2023/05/10 00:56:56;;;;;;;22.10;8.52;;;;;;;10.77;100.00;100685.31;5020774;28;20144;-77
2023/05/10 00:59:41;;;;;;;25.13;9.38;;;;;;;10.78;100.00;100696.75;5015387;28;21092;-76
2023/05/10 01:02:25;;;;;;;30.70;11.30;;;;;;;10.79;100.00;100695.81;5007398;28;20147;-77
2023/05/10 01:05:09;;;;;;;25.35;10.90;;;;;;;10.77;100.00;100693.25;5018927;28;20704;-77
2023/05/10 01:07:53;;;;;;;35.60;11.18;;;;;;;10.76;100.00;100696.84;5015929;28;20107;-77
2023/05/10 01:10:37;;;;;;;27.65;10.40;;;;;;;10.76;100.00;100695.97;5023526;28;20055;-77
2023/05/10 01:13:33;;;;;;;30.58;10.75;;;;;;;10.73;100.00;100697.84;5021838;28;20052;-77
2023/05/10 01:16:18;;;;;;;30.38;10.52;;;;;;;10.71;100.00;100691.75;5019753;28;20423;-77
2023/05/10 01:19:03;;;;;;;30.30;12.65;;;;;;;10.73;100.00;100697.84;5016546;28;20101;-77
2023/05/10 01:21:50;;;;;;;33.55;12.75;;;;;;;10.73;100.00;100691.66;5022705;28;20043;-77
2023/05/10 01:24:56;;;;;;;30.35;12.10;;;;;;;10.72;100.00;100695.25;5017964;28;20040;-77
2023/05/10 01:28:26;;;;;;;32.67;12.43;;;;;;;10.71;100.00;100694.41;5017468;28;20052;-77
2023/05/10 01:31:29;;;;;;;35.38;12.57;;;;;;;10.70;100.00;100692.69;5018188;28;20113;-78
2023/05/10 01:34:16;;;;;;;29.75;11.80;;;;;;;10.71;100.00;100704.13;5019753;28;20056;-77
2023/05/10 01:37:16;;;;;;;36.63;12.57;;;;;;;10.71;100.00;100705.00;5020925;28;20067;-78
2023/05/10 01:40:06;;;;;;;36.53;13.05;;;;;;;10.71;100.00;100693.53;5019431;28;20412;-77
2023/05/10 01:42:53;;;;;;;31.25;13.70;;;;;;;10.72;100.00;100701.41;5022242;28;20118;-77
2023/05/10 01:45:42;;;;;;;34.80;13.25;;;;;;;10.75;100.00;100704.84;5005286;28;20107;-77
2023/05/10 01:48:27;;;;;;;33.80;14.07;;;;;;;10.73;100.00;100703.13;5017336;28;20149;-77
2023/05/10 01:51:13;;;;;;;37.97;15.23;;;;;;;10.74;100.00;100698.72;5016651;28;20131;-77
2023/05/10 01:54:01;;;;;;;34.50;13.80;;;;;;;10.77;100.00;100702.97;5007601;28;20192;-76
2023/05/10 01:56:50;;;;;;;38.35;16.27;;;;;;;10.78;100.00;100699.41;5022449;28;20510;-77
2023/05/10 01:59:36;;;;;;;41.30;15.55;;;;;;;10.80;100.00;100697.53;5025096;28;20040;-76
2023/05/10 02:02:21;;;;;;;31.05;13.73;;;;;;;10.81;100.00;100704.53;5022812;28;20511;-77
2023/05/10 02:05:06;;;;;;;34.42;14.38;;;;;;;10.81;100.00;100699.25;5020497;28;20160;-77
2023/05/10 02:07:51;;;;;;;35.95;13.05;;;;;;;10.80;100.00;100697.53;5025950;28;21989;-77
2023/05/10 02:10:46;;;;;;;30.73;12.63;;;;;;;10.78;100.00;100697.59;5026477;28;20515;-77
2023/05/10 02:13:32;;;;;;;29.98;12.43;;;;;;;10.77;100.00;100697.66;5023395;28;20059;-78
2023/05/10 02:16:18;;;;;;;29.45;12.52;;;;;;;10.76;100.00;100701.25;5022533;28;20055;-77
2023/05/10 02:19:03;;;;;;;32.67;12.43;;;;;;;10.75;100.00;100702.19;5035554;28;20056;-77
2023/05/10 02:21:47;;;;;;;30.42;11.60;;;;;;;10.75;100.00;100707.50;5010305;28;20047;-78
2023/05/10 02:24:33;;;;;;;22.98;10.57;;;;;;;10.72;100.00;100713.78;4996445;28;20132;-78
2023/05/10 02:27:18;;;;;;;26.90;11.40;;;;;;;10.70;100.00;100705.06;5018945;28;20051;-77
2023/05/10 02:30:03;;;;;;;23.30;9.95;;;;;;;10.70;100.00;100713.00;5008437;28;20051;-78
2023/05/10 02:32:49;;;;;;;26.70;10.95;;;;;;;10.67;100.00;100716.66;5022524;28;20487;-77
2023/05/10 02:35:34;;;;;;;29.35;11.52;;;;;;;10.68;100.00;100718.38;5019269;28;20064;-77
2023/05/10 02:38:20;;;;;;;25.30;10.57;;;;;;;10.69;100.00;100719.25;5020882;28;20098;-77
2023/05/10 02:41:05;;;;;;;22.38;10.68;;;;;;;10.68;100.00;100725.47;5023287;28;20048;-78
2023/05/10 02:43:56;;;;;;;19.65;10.18;;;;;;;10.67;100.00;100710.53;5021044;28;20044;-78
2023/05/10 02:46:40;;;;;;;23.05;10.85;;;;;;;10.67;100.00;100707.88;5020134;28;21572;-77
2023/05/10 02:49:24;;;;;;;21.05;10.15;;;;;;;10.68;100.00;100707.78;5025181;28;20052;-78
2023/05/10 02:52:09;;;;;;;22.33;10.95;;;;;;;10.65;100.00;100707.94;5019962;28;20110;-78
2023/05/10 02:54:55;;;;;;;19.60;10.48;;;;;;;10.66;100.00;100712.31;5024307;28;20063;-78
2023/05/10 02:57:44;;;;;;;20.48;10.35;;;;;;;10.66;100.00;100714.94;5020336;28;20131;-77
2023/05/10 03:00:28;;;;;;;20.83;10.15;;;;;;;10.65;100.00;100709.72;5034788;28;20175;-78
2023/05/10 03:03:12;;;;;;;19.90;10.43;;;;;;;10.65;100.00;100707.94;5024135;28;20059;-78
2023/05/10 03:06:04;;;;;;;18.95;10.27;;;;;;;10.66;100.00;100717.59;5023679;28;20137;-78
2023/05/10 03:08:48;;;;;;;20.05;10.07;;;;;;;10.66;100.00;100712.31;5023225;28;20064;-78
2023/05/10 03:12:10;;;;;;;15.50;9.98;;;;;;;10.67;100.00;100715.81;5023817;28;20052;-77
2023/05/10 03:15:05;;;;;;;17.85;10.18;;;;;;;10.66;100.00;100714.94;5020607;28;20052;-77
2023/05/10 03:17:55;;;;;;;16.67;10.27;;;;;;;10.67;100.00;100719.31;5023636;28;20036;-77
2023/05/10 03:20:48;;;;;;;14.45;9.65;;;;;;;10.66;100.00;100716.72;5007882;28;20107;-77
2023/05/10 03:23:53;;;;;;;13.93;9.07;;;;;;;10.66;100.00;100714.06;5032324;28;20094;-77
2023/05/10 03:26:38;;;;;;;15.63;9.57;;;;;;;10.67;100.00;100724.59;5022787;28;21552;-77
2023/05/10 03:29:23;;;;;;;13.27;8.82;;;;;;;10.67;100.00;100729.06;5023488;28;20135;-76
2023/05/10 03:32:06;;;;;;;13.50;8.90;;;;;;;10.67;100.00;100732.53;5017998;28;20581;-77
2023/05/10 03:34:52;;;;;;;14.38;9.00;;;;;;;10.67;100.00;100743.13;5021676;28;20186;-77
2023/05/10 03:37:47;;;;;;;15.23;9.68;;;;;;;10.68;100.00;100738.72;5024205;28;20056;-77
2023/05/10 03:40:41;;;;;;;11.85;8.80;;;;;;;10.68;100.00;100736.06;5020753;28;20826;-76
2023/05/10 03:43:25;;;;;;;14.50;9.13;;;;;;;10.69;100.00;100743.06;5020951;28;20506;-78
2023/05/10 03:46:10;;;;;;;14.88;8.65;;;;;;;10.68;100.00;100744.00;5021585;28;20278;-77
2023/05/10 03:48:55;;;;;;;13.70;9.05;;;;;;;10.67;100.00;100737.84;5022775;28;20119;-77
2023/05/10 03:51:39;;;;;;;13.90;9.23;;;;;;;10.67;100.00;100744.94;5021196;28;20091;-77
2023/05/10 03:54:23;;;;;;;14.63;9.10;;;;;;;10.67;100.00;100750.25;5019675;28;20063;-77
2023/05/10 03:57:07;;;;;;;14.25;9.13;;;;;;;10.66;100.00;100744.06;5023742;28;20056;-78
2023/05/10 03:59:51;;;;;;;12.60;8.57;;;;;;;10.66;100.00;100749.38;5021315;28;20056;-77
2023/05/10 04:02:35;;;;;;;14.75;8.88;;;;;;;10.67;100.00;100750.25;5021847;28;21101;-77
2023/05/10 04:05:19;;;;;;;12.65;8.63;;;;;;;10.67;100.00;100756.38;5024128;28;20199;-77
2023/05/10 04:08:04;;;;;;;12.15;8.38;;;;;;;10.67;100.00;100756.38;4980646;28;1196402;-78
2023/05/10 04:10:48;;;;;;;12.00;8.27;;;;;;;10.68;100.00;100752.78;5013740;28;20391;-77
2023/05/10 04:13:32;;;;;;;13.18;8.75;;;;;;;10.68;100.00;100751.94;5020969;28;20099;-77
2023/05/10 04:16:17;;;;;;;10.80;7.90;;;;;;;10.68;100.00;100758.09;5015544;28;20092;-77
2023/05/10 04:19:01;;;;;;;10.00;7.25;;;;;;;10.66;100.00;100754.66;5015947;28;20060;-76
2023/05/10 04:21:48;;;;;;;10.80;7.35;;;;;;;10.68;100.00;100766.03;5021270;28;20056;-76
2023/05/10 04:24:33;;;;;;;11.02;7.95;;;;;;;10.67;100.00;100756.38;5020889;28;20115;-77
2023/05/10 04:27:22;;;;;;;10.27;7.20;;;;;;;10.69;100.00;100758.97;5018167;28;20775;-77
2023/05/10 04:30:07;;;;;;;10.45;7.28;;;;;;;10.68;100.00;100759.91;5020236;28;20133;-77
2023/05/10 04:32:51;;;;;;;11.05;7.63;;;;;;;10.69;100.00;100764.25;5018437;28;20150;-76
2023/05/10 04:35:35;;;;;;;10.30;7.10;;;;;;;10.69;100.00;100770.38;5017514;28;20048;-76
2023/05/10 04:38:19;;;;;;;10.25;7.25;;;;;;;10.68;100.00;100768.69;5017679;28;20644;-76
2023/05/10 04:41:11;;;;;;;9.70;7.57;;;;;;;10.71;100.00;100763.25;5020974;28;20514;-75
2023/05/10 04:43:56;;;;;;;10.57;7.43;;;;;;;10.71;100.00;100767.69;5019725;28;20476;-75
2023/05/10 04:46:40;;;;;;;9.45;6.80;;;;;;;10.72;100.00;100766.75;5019723;28;20040;-76
2023/05/10 04:49:24;;;;;;;9.23;6.70;;;;;;;10.71;100.00;100768.56;5017944;28;20203;-76
2023/05/10 04:52:08;;;;;;;6.40;5.70;;;;;;;10.73;100.00;100779.03;5020574;28;20044;-75
2023/05/10 04:54:53;;;;;;;8.25;6.05;;;;;;;10.73;100.00;100785.22;5021720;28;20060;-75
2023/05/10 04:57:37;;;;;;;8.60;6.50;;;;;;;10.73;100.00;100782.56;5018567;28;20080;-76
2023/05/10 05:00:22;;;;;;;8.10;6.13;;;;;;;10.76;100.00;100789.50;5019161;28;20119;-75
2023/05/10 05:03:06;;;;;;;6.88;5.28;;;;;;;10.78;100.00;100792.09;5018616;28;20122;-75
2023/05/10 05:05:50;;;;;;;6.75;5.32;;;;;;;10.80;100.00;100801.69;5018662;28;20075;-76
2023/05/10 05:08:34;;;;;;;9.75;6.05;;;;;;;10.80;100.00;100799.03;5022422;28;20046;-76
2023/05/10 05:11:18;;;;;;;9.00;6.35;;;;;;;10.80;100.00;100806.13;5020877;28;20067;-76
2023/05/10 05:14:02;;;;;;;9.02;6.47;;;;;;;10.81;100.00;100797.22;5020722;28;20056;-76
2023/05/10 05:16:46;;;;;;;10.00;6.43;;;;;;;10.82;100.00;100806.88;5022214;28;20064;-77
2023/05/10 05:19:31;;;;;;;10.60;5.93;;;;;;;10.81;100.00;100805.19;5021621;28;20059;-76
2023/05/10 05:22:15;;;;;;;8.77;5.65;;;;;;;10.81;100.00;100810.47;5019912;28;20060;-75
2023/05/10 05:25:00;;;;;;;9.30;5.60;;;;;;;10.79;100.00;100813.19;5022073;28;20055;-76
2023/05/10 05:27:44;;;;;;;6.40;5.07;;;;;;;10.77;100.00;100817.72;5024327;28;20146;-76
2023/05/10 05:30:29;;;;;;;8.13;5.38;;;;;;;10.78;100.00;100821.22;5018833;28;20092;-77
2023/05/10 05:33:15;;;;;;;7.70;5.55;;;;;;;10.79;100.00;100825.59;5023063;28;20098;-76
2023/05/10 05:36:03;;;;;;;9.48;5.45;;;;;;;10.79;100.00;100828.22;5022915;28;20088;-76
2023/05/10 05:38:48;;;;;;;9.27;5.60;;;;;;;10.80;100.00;100835.25;5023217;28;20259;-76
2023/05/10 05:41:32;;;;;;;10.48;6.82;;;;;;;10.82;100.00;100836.03;5023483;28;20758;-76
2023/05/10 05:44:16;;;;;;;23.58;8.77;;;;;;;10.83;100.00;100846.56;5026804;28;20149;-75
2023/05/10 05:47:00;;;;;;;12.10;7.25;;;;;;;10.83;100.00;100841.25;5022934;28;20124;-76
2023/05/10 05:49:47;;;;;;;9.43;5.45;;;;;;;10.84;100.00;100847.44;5026011;28;20558;-76
2023/05/10 05:52:31;;;;;;;9.20;5.38;;;;;;;10.82;100.00;100839.53;5023813;28;20048;-76
2023/05/10 05:55:15;;;;;;;9.40;5.13;;;;;;;10.81;100.00;100844.91;5023905;28;20052;-76
2023/05/10 05:57:59;;;;;;;13.02;7.97;;;;;;;10.79;100.00;100852.06;5026161;28;20055;-76
2023/05/10 06:00:43;;;;;;;9.88;5.70;;;;;;;10.80;100.00;100853.78;5010625;28;20094;-76
2023/05/10 06:03:28;;;;;;;10.07;5.47;;;;;;;10.83;100.00;100861.56;5023311;28;20044;-75
2023/05/10 06:06:13;;;;;;;10.07;5.30;;;;;;;10.86;100.00;100862.28;5025950;28;20055;-77
2023/05/10 06:08:57;;;;;;;8.90;5.40;;;;;;;10.90;100.00;100868.31;5020771;28;20213;-77
2023/05/10 06:11:41;;;;;;;8.88;4.97;;;;;;;10.90;100.00;100868.31;5025801;28;20148;-77
2023/05/10 06:14:25;;;;;;;9.60;5.47;;;;;;;10.89;100.00;100857.81;5026361;28;20060;-77
2023/05/10 06:17:09;;;;;;;10.02;5.53;;;;;;;10.88;100.00;100867.53;5027952;28;20080;-76
2023/05/10 06:19:54;;;;;;;14.27;5.22;;;;;;;10.86;100.00;100864.94;5021253;28;20102;-75
2023/05/10 06:22:37;;;;;;;11.77;5.50;;;;;;;10.86;100.00;100866.75;5022691;28;20126;-75
2023/05/10 06:25:23;;;;;;;9.07;5.10;;;;;;;10.85;100.00;100872.97;5025324;28;20102;-84
2023/05/10 06:28:07;;;;;;;10.73;5.22;;;;;;;10.88;100.00;100874.63;5011085;28;20044;-75
2023/05/10 06:30:51;;;;;;;9.65;4.25;;;;;;;10.90;100.00;100880.69;5022127;28;20117;-75
2023/05/10 06:33:35;;;;;;;5.80;3.83;;;;;;;10.92;100.00;100887.66;5001270;28;20459;-76
2023/05/10 06:36:19;;;;;;;7.32;4.15;;;;;;;10.95;100.00;100887.50;5008246;28;20055;-76
2023/05/10 06:39:03;;;;;;;6.57;4.20;;;;;;;10.97;100.00;100890.94;5009234;28;22442;-76
2023/05/10 06:41:48;;;;;;;9.20;4.72;;;;;;;10.95;100.00;100890.16;5017604;28;20044;-76
2023/05/10 06:44:32;;;;;;;7.88;3.97;;;;;;;10.94;100.00;100893.72;5017094;28;20171;-75
2023/05/10 06:47:17;;;;;;;7.95;4.45;;;;;;;10.95;100.00;100891.94;5022501;28;20124;-75
2023/05/10 06:50:01;;;;;;;7.72;3.78;;;;;;;10.93;100.00;100894.66;5021679;28;20052;-75
2023/05/10 06:52:46;;;;;;;9.73;3.92;;;;;;;10.91;100.00;100895.66;5006770;28;20403;-75
2023/05/10 06:55:30;;;;;;;7.97;3.42;;;;;;;10.89;100.00;100897.53;5009996;28;20041;-75
2023/05/10 06:58:15;;;;;;;8.48;3.65;;;;;;;10.85;100.00;100895.00;5003167;28;21649;-75
2023/05/10 07:01:05;;;;;;;8.32;3.20;;;;;;;10.85;100.00;100902.09;5011069;28;20056;-75
2023/05/10 07:03:50;;;;;;;7.28;3.50;;;;;;;10.84;100.00;100895.94;5029488;28;20533;-75
2023/05/10 07:06:34;;;;;;;7.50;3.30;;;;;;;10.89;100.00;100911.63;5028579;28;20059;-76
2023/05/10 07:09:18;;;;;;;7.93;3.30;;;;;;;10.91;100.00;100912.44;5025241;28;21930;-76
2023/05/10 07:12:02;;;;;;;6.00;3.42;;;;;;;10.92;100.00;100908.84;5026343;28;20060;-77
2023/05/10 07:14:47;;;;;;;5.32;2.83;;;;;;;10.94;100.00;100904.31;5014088;28;20506;-84
2023/05/10 07:17:33;;;;;;;7.32;3.20;;;;;;;10.96;100.00;100918.34;5011335;28;20057;-81
2023/05/10 07:20:17;;;;;;;5.05;2.83;;;;;;;10.98;100.00;100913.84;5021290;28;20043;-82
2023/05/10 07:23:02;;;;;;;7.65;2.70;;;;;;;10.97;100.00;100921.88;5018547;28;20107;-83
2023/05/10 07:25:51;;;;;;;4.93;2.45;;;;;;;10.94;100.00;100920.22;5027256;28;20052;-74
2023/05/10 07:28:37;;;;;;;3.75;2.50;;;;;;;10.93;100.00;100918.50;5018528;28;21646;-74
2023/05/10 07:31:21;;;;;;;3.88;2.53;;;;;;;10.95;100.00;100924.59;5023749;28;20098;-74
2023/05/10 07:34:05;;;;;;;6.65;2.90;;;;;;;10.97;100.00;100924.53;5019348;28;20075;-74
2023/05/10 07:36:49;;;;;;;4.13;2.58;;;;;;;11.00;100.00;100927.00;5015788;28;20122;-74
2023/05/10 07:39:33;;;;;;;4.45;2.53;;;;;;;11.02;100.00;100925.19;5020830;28;20095;-74
2023/05/10 07:42:17;;;;;;;4.15;3.00;;;;;;;11.06;100.00;100933.84;5019683;28;20103;-74
2023/05/10 07:45:01;;;;;;;4.07;2.53;;;;;;;11.06;100.00;100933.84;5015746;28;21058;-74
2023/05/10 07:47:48;;;;;;;3.92;2.47;;;;;;;11.08;100.00;100939.91;5007651;28;20071;-73
2023/05/10 07:50:32;;;;;;;4.78;2.83;;;;;;;11.12;100.00;100947.66;5017773;28;20055;-74
2023/05/10 07:53:18;;;;;;;6.05;3.50;;;;;;;11.13;100.00;100948.53;5018160;28;20088;-73
2023/05/10 07:56:26;;;;;;;5.85;3.30;;;;;;;11.14;100.00;100950.25;5021667;28;20098;-74
2023/05/10 07:59:10;;;;;;;7.85;4.03;;;;;;;11.16;100.00;100948.38;5025120;28;20203;-75
2023/05/10 08:01:54;;;;;;;9.88;3.90;;;;;;;11.18;100.00;100951.81;5015354;28;20063;-75
2023/05/10 08:04:38;;;;;;;6.38;4.13;;;;;;;11.21;100.00;100951.66;5033237;28;20688;-76
2023/05/10 08:07:24;;;;;;;7.13;4.03;;;;;;;11.25;100.00;100958.56;5023306;28;20060;-75
2023/05/10 08:10:08;;;;;;;7.32;4.00;;;;;;;11.30;100.00;100963.63;5018887;28;20143;-75
2023/05/10 08:12:53;;;;;;;7.45;4.10;;;;;;;11.34;100.00;100967.00;5016519;28;20571;-74
2023/05/10 08:15:37;;;;;;;8.18;4.63;;;;;;;11.37;100.00;100969.50;5019138;28;20051;-74
2023/05/10 08:18:21;;;;;;;7.70;4.22;;;;;;;11.41;100.00;100971.09;5016913;28;20424;-76
2023/05/10 08:21:05;;;;;;;9.10;4.45;;;;;;;11.48;100.00;100972.50;5019888;28;20051;-74
2023/05/10 08:23:50;;;;;;;7.50;4.25;;;;;;;11.55;100.00;100975.72;5022524;28;20056;-75
2023/05/10 08:26:34;;;;;;;9.23;5.03;;;;;;;11.61;100.00;100964.81;5019927;28;20603;-75
2023/05/10 08:29:17;;;;;;;10.43;5.30;;;;;;;11.70;100.00;100968.00;5012656;28;20644;-74
2023/05/10 08:32:02;;;;;;;8.77;4.93;;;;;;;11.80;100.00;100963.94;5011909;28;20059;-75
2023/05/10 08:34:45;;;;;;;7.43;4.43;;;;;;;11.94;100.00;100974.72;5010991;28;20076;-75
2023/05/10 08:37:33;;;;;;;6.22;4.18;;;;;;;12.05;100.00;100973.38;5013780;28;20420;-75
2023/05/10 08:40:23;;;;;;;8.38;4.22;;;;;;;12.16;100.00;100978.16;5016601;28;20979;-75
2023/05/10 08:43:09;;;;;;;7.03;4.30;;;;;;;12.27;100.00;100973.19;5001961;28;20125;-76
2023/05/10 08:45:54;;;;;;;7.07;4.18;;;;;;;12.31;100.00;100963.25;5013366;28;20044;-75
2023/05/10 08:48:41;;;;;;;6.28;3.92;;;;;;;12.30;100.00;100964.19;5001815;28;20697;-75
2023/05/10 08:51:27;;;;;;;8.63;4.07;;;;;;;12.31;100.00;100977.38;5006708;28;20128;-74
2023/05/10 08:54:11;;;;;;;6.70;4.00;;;;;;;12.32;100.00;100978.25;5023958;28;20443;-76
2023/05/10 08:56:55;;;;;;;6.28;3.95;;;;;;;12.30;100.00;100980.97;5019393;28;20051;-75
2023/05/10 08:59:40;;;;;;;6.57;4.13;;;;;;;12.29;100.00;100984.56;5022510;28;20075;-76
2023/05/10 09:02:25;;;;;;;6.82;4.43;;;;;;;12.26;100.00;100984.72;5019840;28;20060;-76
2023/05/10 09:05:10;;;;;;;6.90;4.13;;;;;;;12.27;100.00;100990.88;5015273;28;20055;-75
2023/05/10 09:07:55;;;;;;;8.10;4.65;;;;;;;12.34;100.00;101002.91;5021130;28;20102;-75
2023/05/10 09:10:40;;;;;;;7.35;4.32;;;;;;;12.34;100.00;101000.25;5021258;28;20131;-76
2023/05/10 09:13:24;;;;;;;7.30;4.63;;;;;;;12.31;100.00;101005.75;5018726;28;20060;-76
2023/05/10 09:16:08;;;;;;;6.93;4.13;;;;;;;12.29;100.00;101007.59;5018345;28;20048;-76
2023/05/10 09:18:52;;;;;;;6.35;4.80;;;;;;;12.32;100.00;101018.06;5020164;28;20056;-76
2023/05/10 09:21:39;;;;;;;6.68;4.18;;;;;;;12.37;100.00;101016.06;5017593;28;20083;-76
2023/05/10 09:24:27;;;;;;;9.38;4.82;;;;;;;12.43;100.00;101012.22;5020861;28;20164;-76
2023/05/10 09:27:24;;;;;;;8.80;4.35;;;;;;;12.46;100.00;101020.00;5019345;28;20087;-76
2023/05/10 09:30:15;;;;;;;9.75;5.03;;;;;;;12.54;100.00;101016.97;5022843;28;20076;-76
2023/05/10 09:33:00;;;;;;;8.20;4.93;;;;;;;12.63;100.00;101017.38;5016773;28;20063;-76
2023/05/10 09:35:52;;;;;;;8.38;5.18;;;;;;;12.71;100.00;101029.41;5022055;28;20060;-76
2023/05/10 09:38:46;;;;;;;8.93;5.13;;;;;;;12.76;100.00;101027.38;5023268;28;20923;-75
2023/05/10 09:41:31;;;;;;;8.73;5.00;;;;;;;12.81;100.00;101027.13;5023844;28;20071;-77
2023/05/10 09:44:19;;;;;;;8.27;5.25;;;;;;;12.87;100.00;101034.78;5017990;28;21181;-76
2023/05/10 09:47:03;;;;;;;8.18;4.50;;;;;;;12.93;100.00;101041.56;5018883;28;20044;-76
2023/05/10 09:49:51;;;;;;;9.07;5.85;;;;;;;12.96;100.00;101036.09;5006925;28;20446;-77
2023/05/10 09:52:57;;;;;;;11.43;6.57;;;;;;;12.96;100.00;101044.06;5018687;28;21126;-77
2023/05/10 09:55:46;;;;;;;11.50;6.90;;;;;;;12.93;100.00;101044.22;5019127;28;20115;-76
2023/05/10 09:58:30;;;;;;;11.38;6.32;;;;;;;12.97;100.00;101051.94;5022099;28;20060;-76
2023/05/10 10:01:25;;;;;;;10.65;5.78;;;;;;;13.03;100.00;101045.47;5016677;28;20076;-77
2023/05/10 10:04:12;;;;;;;10.35;5.68;;;;;;;13.04;100.00;101057.81;5015082;28;20203;-76
2023/05/10 10:07:02;;;;;;;12.38;6.22;;;;;;;13.05;100.00;101048.88;5028893;28;20359;-77
2023/05/10 10:09:46;;;;;;;10.63;5.65;;;;;;;13.09;100.00;101050.47;5018751;28;20111;-77
2023/05/10 10:12:31;;;;;;;9.65;5.35;;;;;;;13.11;100.00;101053.88;5016427;28;20445;-77
2023/05/10 10:15:15;;;;;;;9.40;5.40;;;;;;;13.15;100.00;101058.13;5022796;28;20088;-77
2023/05/10 10:18:00;;;;;;;9.40;5.80;;;;;;;13.20;100.00;101054.34;5019522;28;20160;-76
2023/05/10 10:20:44;;;;;;;9.68;5.95;;;;;;;13.27;100.00;101059.25;5022134;28;20047;-75
2023/05/10 10:23:28;;;;;;;9.98;5.60;;;;;;;13.33;100.00;101063.38;5022603;28;20565;-75
2023/05/10 10:26:12;;;;;;;10.70;6.20;;;;;;;13.41;100.00;101066.47;5021177;28;20052;-76
2023/05/10 10:29:13;;;;;;;8.52;5.68;;;;;;;13.35;100.00;101072.13;5023423;28;20094;-77
2023/05/10 10:32:07;;;;;;;10.13;6.28;;;;;;;13.33;100.00;101068.69;5024400;28;20148;-77
2023/05/10 10:34:53;;;;;;;9.00;5.82;;;;;;;13.32;100.00;101072.28;5023987;28;20052;-77
2023/05/10 10:37:43;;;;;;;8.23;5.40;;;;;;;13.33;100.00;101068.69;5014655;28;20103;-76
2023/05/10 10:40:32;;;;;;;9.77;5.90;;;;;;;13.40;100.00;101072.72;5024074;28;20051;-77
2023/05/10 10:43:25;;;;;;;8.45;5.70;;;;;;;13.51;100.00;101071.34;5026743;28;20613;-77
2023/05/10 10:46:14;;;;;;;9.75;5.65;;;;;;;13.51;100.00;101080.16;5025464;28;20079;-78
2023/05/10 10:49:09;;;;;;;8.40;5.07;;;;;;;13.49;100.00;101073.22;5017492;28;22033;-77
2023/05/10 10:52:21;;;;;;;8.20;4.50;;;;;;;13.52;100.00;101078.38;5012802;28;20639;-80
2023/05/10 10:55:13;;;;;;;8.30;5.35;;;;;;;13.49;100.00;101084.72;5015785;28;20091;-76
2023/05/10 10:58:02;;;;;;;10.18;4.60;;;;;;;13.51;100.00;101084.66;5018317;28;20187;-76
2023/05/10 11:00:46;;;;;;;8.88;5.20;;;;;;;13.50;100.00;101088.25;5022665;28;20145;-76
2023/05/10 11:03:30;;;;;;;10.20;4.85;;;;;;;13.55;100.00;101091.50;5016809;28;20126;-75
2023/05/10 11:06:29;;;;;;;9.88;5.40;;;;;;;13.61;100.00;101092.97;5012357;28;20060;-76
2023/05/10 11:09:15;;;;;;;10.75;5.88;;;;;;;13.68;100.00;101089.03;5018448;28;20485;-76
2023/05/10 11:12:07;;;;;;;11.77;6.25;;;;;;;13.70;100.00;101095.13;5014051;28;20060;-76
2023/05/10 11:14:52;;;;;;;8.50;5.65;;;;;;;13.74;100.00;101104.69;5009757;28;20058;-76
2023/05/10 11:17:36;;;;;;;10.07;5.80;;;;;;;13.79;100.00;101102.59;5020856;28;20056;-76
2023/05/10 11:20:23;;;;;;;8.98;5.43;;;;;;;13.82;100.00;101102.44;5018105;28;20122;-78
2023/05/10 11:23:17;;;;;;;9.30;5.47;;;;;;;13.85;100.00;101104.09;5020594;28;20048;-77
2023/05/10 11:26:02;;;;;;;8.90;5.75;;;;;;;13.84;100.00;101107.69;5019875;28;20072;-77
2023/05/10 11:28:47;;;;;;;8.15;5.53;;;;;;;13.85;100.00;101107.59;5021314;28;20052;-76
2023/05/10 11:31:31;;;;;;;8.43;5.35;;;;;;;13.85;100.00;101107.59;5024230;28;20142;-77
2023/05/10 11:36:41;;;;;;;9.65;5.30;;;;;;;13.94;100.00;101108.88;5025557;28;20135;-77
2023/05/10 11:39:27;;;;;;;9.65;5.38;;;;;;;13.98;100.00;101123.75;5007925;28;20084;-76
2023/05/10 11:42:12;;;;;;;9.23;4.43;;;;;;;13.99;100.00;101117.47;5010645;28;20307;-76
2023/05/10 11:44:56;;;;;;;7.60;4.70;;;;;;;14.01;100.00;101121.84;5010676;28;20634;-77
2023/05/10 11:47:43;;;;;;;7.95;5.43;;;;;;;14.03;100.00;101119.97;5010790;28;20052;-75
2023/05/10 11:50:31;;;;;;;9.05;5.25;;;;;;;14.12;100.00;101116.81;4997752;28;20045;-76
2023/05/10 11:53:15;;;;;;;8.18;5.50;;;;;;;14.21;100.00;101118.94;5009770;28;21367;-77
2023/05/10 11:56:04;;;;;;;6.97;4.80;;;;;;;14.30;100.00;101122.00;5009113;28;20115;-75
2023/05/10 11:59:02;;;;;;;5.80;4.25;;;;;;;14.38;100.00;101127.75;5011173;28;20838;-76
2023/05/10 12:01:46;;;;;;;6.20;4.13;;;;;;;14.45;100.00;101134.47;5010124;28;20059;-76
2023/05/10 12:04:31;;;;;;;5.95;4.53;;;;;;;14.50;100.00;101136.88;5008496;28;20052;-77
2023/05/10 12:07:16;;;;;;;8.02;4.78;;;;;;;14.53;100.00;101137.56;4996361;28;20132;-77
2023/05/10 12:10:08;;;;;;;6.53;4.78;;;;;;;14.54;100.00;101141.06;5013978;28;20099;-77
2023/05/10 12:12:52;;;;;;;5.32;4.22;;;;;;;14.53;100.00;101145.53;5000260;28;20563;-76
2023/05/10 12:15:36;;;;;;;5.18;4.22;;;;;;;14.56;100.00;101143.63;4999589;28;21259;-75
2023/05/10 12:18:24;;;;;;;6.25;4.65;;;;;;;14.56;100.00;101144.50;4984045;28;20053;-76
2023/05/10 12:21:12;;;;;;;6.00;4.35;;;;;;;14.67;100.00;101147.41;4987738;28;20073;-76
2023/05/10 12:24:01;;;;;;;7.25;4.43;;;;;;;14.78;100.00;101153.94;4996560;28;20112;-76
2023/05/10 12:26:45;;;;;;;6.28;4.60;;;;;;;14.83;100.00;101148.34;4990837;28;20048;-76
2023/05/10 12:29:30;;;;;;;6.05;4.90;;;;;;;14.90;100.00;101155.03;4990028;28;20123;-76
2023/05/10 12:32:14;;;;;;;6.40;5.00;;;;;;;14.94;100.00;101159.25;4985935;28;20087;-78
2023/05/10 12:34:58;;;;;;;8.15;5.57;;;;;;;15.02;100.00;101151.66;4992222;28;20475;-77
2023/05/10 12:37:43;;;;;;;6.90;5.13;;;;;;;15.04;100.00;101160.41;4990802;28;20087;-77
2023/05/10 12:40:27;;;;;;;8.48;5.47;;;;;;;15.10;100.00;101155.66;4983735;28;20056;-77
2023/05/10 12:43:11;;;;;;;9.98;5.95;;;;;;;15.06;100.00;101152.31;4988577;28;20603;-78